createdAt,value
2022-12-29T00:01:46.747Z,5.43
2022-12-29T00:04:16.001Z,4.18
2022-12-29T00:06:44.639Z,4.43
2022-12-29T00:09:14.492Z,3.85
2022-12-29T00:11:42.909Z,3.80
2022-12-29T00:14:28.360Z,4.03
2022-12-29T00:16:56.006Z,5.13
2022-12-29T00:19:41.541Z,4.25
2022-12-29T00:22:29.073Z,3.83
2022-12-29T00:25:16.203Z,5.53
2022-12-29T00:28:07.440Z,4.80
2022-12-29T00:30:55.113Z,4.35
2022-12-29T00:33:44.976Z,3.97
2022-12-29T00:36:17.407Z,3.83
2022-12-29T00:39:07.702Z,4.15
2022-12-29T00:41:54.413Z,4.28
2022-12-29T00:44:21.960Z,4.30
2022-12-29T00:46:49.597Z,3.70
2022-12-29T00:49:31.833Z,5.95
2022-12-29T00:52:01.771Z,4.20
2022-12-29T00:54:30.803Z,3.95
2022-12-29T00:57:00.061Z,3.90
2022-12-29T00:59:27.939Z,4.43
2022-12-29T01:01:58.832Z,6.28
2022-12-29T01:04:27.623Z,5.00
2022-12-29T01:06:55.597Z,3.97
2022-12-29T01:09:41.314Z,4.97
2022-12-29T01:12:11.754Z,4.03
2022-12-29T01:14:40.074Z,5.30
2022-12-29T01:17:07.915Z,5.57
2022-12-29T01:19:35.544Z,4.28
2022-12-29T01:22:03.164Z,3.63
2022-12-29T01:24:30.873Z,3.58
2022-12-29T01:26:58.450Z,3.40
2022-12-29T01:29:27.360Z,4.63
2022-12-29T01:31:54.921Z,4.25
2022-12-29T01:34:23.871Z,5.57
2022-12-29T01:36:51.424Z,3.65
2022-12-29T01:39:19.024Z,4.13
2022-12-29T01:41:46.722Z,4.00
2022-12-29T01:44:56.963Z,4.38
2022-12-29T01:47:31.511Z,4.70
2022-12-29T01:50:03.581Z,4.80
2022-12-29T01:52:33.446Z,4.05
2022-12-29T01:55:05.115Z,4.25
2022-12-29T01:57:36.427Z,5.43
2022-12-29T02:00:09.384Z,4.35
2022-12-29T02:02:46.701Z,4.65
2022-12-29T02:05:22.229Z,4.55
2022-12-29T02:07:52.570Z,5.47
2022-12-29T02:10:21.666Z,5.35
2022-12-29T02:12:50.035Z,4.72
2022-12-29T02:15:19.679Z,4.82
2022-12-29T02:18:03.527Z,4.93
2022-12-29T02:20:59.942Z,4.70
2022-12-29T02:23:59.761Z,4.32
2022-12-29T02:26:46.410Z,4.30
2022-12-29T02:29:57.214Z,4.25
2022-12-29T02:32:31.521Z,3.97
2022-12-29T02:35:07.571Z,4.38
2022-12-29T02:37:44.001Z,5.03
2022-12-29T02:40:24.757Z,3.90
2022-12-29T02:43:01.102Z,3.38
2022-12-29T02:45:33.891Z,4.43
2022-12-29T02:48:09.958Z,4.38
2022-12-29T02:50:40.997Z,4.32
2022-12-29T02:53:11.319Z,4.25
2022-12-29T02:55:37.904Z,4.32
2022-12-29T02:58:24.673Z,4.10
2022-12-29T03:01:05.696Z,4.32
2022-12-29T03:03:48.687Z,5.05
2022-12-29T03:06:32.381Z,4.60
2022-12-29T03:09:18.893Z,3.92
2022-12-29T03:12:11.625Z,4.05
2022-12-29T03:15:09.986Z,4.63
2022-12-29T03:17:46.894Z,4.40
2022-12-29T03:20:21.898Z,3.85
2022-12-29T03:22:57.301Z,3.97
2022-12-29T03:25:30.269Z,4.40
2022-12-29T03:28:03.035Z,4.35
2022-12-29T03:30:36.261Z,4.78
2022-12-29T03:33:06.928Z,4.35
2022-12-29T03:35:38.456Z,3.60
2022-12-29T03:38:14.334Z,3.85
2022-12-29T03:40:44.712Z,5.88
2022-12-29T03:43:14.199Z,3.85
2022-12-29T03:45:42.677Z,4.35
2022-12-29T03:48:11.116Z,3.95
2022-12-29T03:50:43.314Z,3.47
2022-12-29T03:53:10.887Z,3.65
2022-12-29T03:55:39.649Z,4.32
2022-12-29T03:58:07.521Z,3.38
2022-12-29T04:01:02.039Z,3.38
2022-12-29T04:03:32.271Z,3.00
2022-12-29T04:06:01.826Z,5.05
2022-12-29T04:08:35.124Z,3.13
2022-12-29T04:11:02.740Z,3.42
2022-12-29T04:13:30.399Z,3.13
2022-12-29T04:15:58.147Z,3.25
2022-12-29T04:18:25.744Z,3.72
2022-12-29T04:21:03.689Z,5.20
2022-12-29T04:23:37.089Z,2.63
2022-12-29T04:26:09.915Z,2.72
2022-12-29T04:28:47.402Z,2.92
2022-12-29T04:31:44.074Z,2.83
2022-12-29T04:34:12.264Z,2.53
2022-12-29T04:36:40.693Z,2.33
2022-12-29T04:39:10.440Z,2.33
2022-12-29T04:41:40.129Z,2.22
2022-12-29T04:44:09.938Z,2.50
2022-12-29T04:46:40.264Z,4.15
2022-12-29T04:49:32.630Z,2.33
2022-12-29T04:52:22.970Z,2.08
2022-12-29T04:54:51.977Z,2.00
2022-12-29T04:57:21.494Z,2.20
2022-12-29T04:59:53.573Z,2.00
2022-12-29T05:02:21.537Z,2.05
2022-12-29T05:04:51.222Z,1.30
2022-12-29T05:07:19.293Z,1.80
2022-12-29T05:09:47.062Z,1.80
2022-12-29T05:12:16.018Z,1.92
2022-12-29T05:14:54.635Z,1.63
2022-12-29T05:17:22.202Z,2.15
2022-12-29T05:19:49.788Z,1.90
2022-12-29T05:22:17.520Z,1.73
2022-12-29T05:24:46.345Z,2.50
2022-12-29T05:27:14.231Z,2.20
2022-12-29T05:30:19.035Z,2.88
2022-12-29T05:32:46.828Z,4.65
2022-12-29T05:35:14.453Z,2.65
2022-12-29T05:37:42.366Z,2.50
2022-12-29T05:40:10.725Z,2.60
2022-12-29T05:42:38.323Z,2.78
2022-12-29T05:45:35.852Z,5.88
2022-12-29T05:48:25.412Z,2.70
2022-12-29T05:51:11.394Z,2.38
2022-12-29T05:53:48.042Z,4.07
2022-12-29T05:56:16.779Z,3.17
2022-12-29T05:58:46.597Z,2.15
2022-12-29T06:01:15.666Z,4.85
2022-12-29T06:03:48.151Z,2.17
2022-12-29T06:06:16.948Z,1.75
2022-12-29T06:08:45.165Z,2.95
2022-12-29T06:11:12.872Z,2.50
2022-12-29T06:13:43.533Z,3.72
2022-12-29T06:16:11.288Z,2.95
2022-12-29T06:18:41.267Z,2.63
2022-12-29T06:21:09.560Z,2.85
2022-12-29T06:23:37.684Z,2.10
2022-12-29T06:26:06.202Z,1.60
2022-12-29T06:28:34.341Z,2.22
2022-12-29T06:31:05.286Z,3.17
2022-12-29T06:33:32.972Z,1.67
2022-12-29T06:36:02.007Z,1.80
2022-12-29T06:38:31.438Z,1.73
2022-12-29T06:41:00.467Z,3.25
2022-12-29T06:43:49.816Z,2.20
2022-12-29T06:46:36.283Z,2.20
2022-12-29T06:49:04.164Z,2.75
2022-12-29T06:51:33.111Z,3.83
2022-12-29T06:54:00.784Z,3.67
2022-12-29T06:56:28.344Z,1.92
2022-12-29T06:58:55.957Z,1.75
2022-12-29T07:01:23.885Z,1.83
2022-12-29T07:03:51.528Z,1.85
2022-12-29T07:06:19.114Z,3.40
2022-12-29T07:08:48.115Z,2.85
2022-12-29T07:11:15.907Z,2.10
2022-12-29T07:13:44.945Z,3.45
2022-12-29T07:16:12.769Z,3.38
2022-12-29T07:18:40.628Z,2.60
2022-12-29T07:21:08.320Z,2.42
2022-12-29T07:23:36.176Z,2.13
2022-12-29T07:26:06.750Z,2.10
2022-12-29T07:28:35.884Z,3.55
2022-12-29T07:31:03.939Z,2.85
2022-12-29T07:33:32.085Z,2.65
2022-12-29T07:36:00.849Z,5.43
2022-12-29T07:38:28.587Z,4.13
2022-12-29T07:40:59.079Z,3.33
2022-12-29T07:43:28.300Z,2.95
2022-12-29T07:46:55.675Z,3.05
2022-12-29T07:49:04.047Z,3.03
2022-12-29T07:51:32.552Z,3.53
2022-12-29T07:54:01.530Z,2.38
2022-12-29T07:56:29.886Z,2.42
2022-12-29T07:58:59.013Z,2.03
2022-12-29T08:01:26.811Z,2.10
2022-12-29T08:03:57.545Z,2.40
2022-12-29T08:06:25.526Z,1.70
2022-12-29T08:08:53.091Z,1.80
2022-12-29T08:11:20.975Z,2.50
2022-12-29T08:13:48.640Z,1.40
2022-12-29T08:16:17.808Z,2.72
2022-12-29T08:18:45.481Z,1.38
2022-12-29T08:21:13.121Z,2.58
2022-12-29T08:23:40.659Z,2.50
2022-12-29T08:26:08.275Z,8.32
2022-12-29T08:28:35.947Z,12.38
2022-12-29T08:31:04.109Z,5.95
2022-12-29T08:33:33.531Z,5.10
2022-12-29T08:36:02.412Z,3.78
2022-12-29T08:38:30.675Z,6.25
2022-12-29T08:40:59.203Z,7.15
2022-12-29T08:43:27.464Z,6.75
2022-12-29T08:45:55.168Z,7.82
2022-12-29T08:48:23.192Z,4.22
2022-12-29T08:50:52.461Z,5.30
2022-12-29T08:53:20.795Z,7.40
2022-12-29T08:55:49.510Z,3.63
2022-12-29T08:58:17.485Z,5.57
2022-12-29T09:00:46.132Z,6.47
2022-12-29T09:03:14.603Z,3.20
2022-12-29T09:05:42.428Z,4.60
2022-12-29T09:08:11.310Z,5.40
2022-12-29T09:10:39.334Z,4.13
2022-12-29T09:13:07.054Z,2.10
2022-12-29T09:15:34.593Z,2.65
2022-12-29T09:18:02.244Z,3.20
2022-12-29T09:20:30.179Z,3.15
2022-12-29T09:22:58.025Z,5.18
2022-12-29T09:25:27.252Z,2.00
2022-12-29T09:27:55.507Z,2.42
2022-12-29T09:30:24.505Z,5.70
2022-12-29T09:32:55.345Z,4.45
2022-12-29T09:35:23.187Z,3.90
2022-12-29T09:37:51.667Z,7.55
2022-12-29T09:40:31.788Z,7.82
2022-12-29T09:43:24.381Z,6.82
2022-12-29T09:46:02.770Z,3.85
2022-12-29T09:48:34.214Z,6.30
2022-12-29T09:51:07.205Z,2.47
2022-12-29T09:53:40.333Z,3.33
2022-12-29T09:56:17.130Z,6.85
2022-12-29T09:58:49.581Z,3.05
2022-12-29T10:01:27.436Z,2.00
2022-12-29T10:03:58.167Z,5.43
2022-12-29T10:06:33.457Z,4.90
2022-12-29T10:09:06.653Z,5.03
2022-12-29T10:11:51.817Z,5.25
2022-12-29T10:14:34.951Z,4.45
2022-12-29T10:17:15.133Z,3.03
2022-12-29T10:19:59.381Z,2.65
2022-12-29T10:22:40.289Z,5.57
2022-12-29T10:25:15.655Z,5.55
2022-12-29T10:27:48.597Z,6.20
2022-12-29T10:30:16.915Z,2.03
2022-12-29T10:32:48.947Z,4.57
2022-12-29T10:35:20.572Z,2.72
2022-12-29T10:37:52.498Z,6.00
2022-12-29T10:40:26.902Z,2.15
2022-12-29T10:42:58.571Z,3.83
2022-12-29T10:45:30.893Z,3.67
2022-12-29T10:48:04.241Z,3.60
2022-12-29T10:50:32.379Z,4.68
2022-12-29T10:53:04.198Z,3.88
2022-12-29T10:55:35.511Z,4.00
2022-12-29T10:58:08.042Z,3.83
2022-12-29T11:00:35.994Z,5.22
2022-12-29T11:03:31.613Z,6.88
2022-12-29T11:06:06.436Z,4.18
2022-12-29T11:08:39.855Z,4.03
2022-12-29T11:11:10.208Z,7.70
2022-12-29T11:13:51.023Z,4.65
2022-12-29T11:16:31.705Z,6.40
2022-12-29T11:19:00.367Z,5.10
2022-12-29T11:21:35.897Z,3.78
2022-12-29T11:24:05.456Z,7.10
2022-12-29T11:26:35.356Z,4.22
2022-12-29T11:29:26.810Z,5.07
2022-12-29T11:31:56.194Z,6.60
2022-12-29T11:34:26.943Z,6.93
2022-12-29T11:37:00.332Z,2.35
2022-12-29T11:39:35.302Z,4.82
2022-12-29T11:42:04.592Z,2.53
2022-12-29T11:44:39.540Z,2.65
2022-12-29T11:47:10.837Z,3.75
2022-12-29T11:49:38.579Z,4.32
2022-12-29T11:52:06.514Z,2.10
2022-12-29T11:54:38.687Z,2.38
2022-12-29T11:57:15.592Z,1.17
2022-12-29T11:59:51.059Z,5.50
2022-12-29T12:02:44.438Z,3.08
2022-12-29T12:05:19.383Z,2.72
2022-12-29T12:07:51.261Z,4.00
2022-12-29T12:10:24.706Z,3.83
2022-12-29T12:13:03.848Z,6.05
2022-12-29T12:15:45.348Z,4.68
2022-12-29T12:18:20.502Z,4.15
2022-12-29T12:20:52.380Z,4.50
2022-12-29T12:23:45.590Z,4.70
2022-12-29T12:26:14.901Z,5.70
2022-12-29T12:28:51.699Z,5.50
2022-12-29T12:31:37.401Z,3.78
2022-12-29T12:34:10.938Z,4.68
2022-12-29T12:36:54.453Z,4.10
2022-12-29T12:39:28.908Z,2.13
2022-12-29T12:42:14.788Z,4.40
2022-12-29T12:44:52.856Z,4.80
2022-12-29T12:47:38.142Z,2.85
2022-12-29T12:50:30.422Z,4.88
2022-12-29T12:53:23.801Z,4.30
2022-12-29T12:56:05.683Z,6.47
2022-12-29T12:58:42.093Z,5.10
2022-12-29T13:01:23.318Z,7.75
2022-12-29T13:04:07.689Z,3.38
2022-12-29T13:06:43.703Z,6.13
2022-12-29T13:09:31.742Z,4.22
2022-12-29T13:12:12.353Z,3.38
2022-12-29T13:14:49.973Z,4.03
2022-12-29T13:17:21.868Z,6.50
2022-12-29T13:19:58.836Z,5.78
2022-12-29T13:22:34.108Z,3.38
2022-12-29T13:25:21.202Z,4.55
2022-12-29T13:27:55.093Z,5.57
2022-12-29T13:30:24.891Z,3.95
2022-12-29T13:33:00.140Z,5.43
2022-12-29T13:35:45.994Z,6.78
2022-12-29T13:38:19.417Z,4.88
2022-12-29T13:40:51.838Z,3.35
2022-12-29T13:43:20.223Z,3.67
2022-12-29T13:45:57.716Z,3.47
2022-12-29T13:48:33.128Z,6.43
2022-12-29T13:51:03.123Z,5.40
2022-12-29T13:53:38.054Z,5.00
2022-12-29T13:56:09.643Z,7.15
2022-12-29T13:58:44.013Z,5.80
2022-12-29T14:01:19.485Z,10.57
2022-12-29T14:03:51.242Z,14.38
2022-12-29T14:06:25.152Z,7.63
2022-12-29T14:08:55.851Z,7.75
2022-12-29T14:11:26.719Z,9.15
2022-12-29T14:13:54.855Z,15.95
2022-12-29T14:16:36.950Z,7.60
2022-12-29T14:19:14.879Z,5.13
2022-12-29T14:21:53.279Z,3.55
2022-12-29T14:24:46.475Z,3.85
2022-12-29T14:27:46.093Z,3.35
2022-12-29T14:30:59.330Z,6.47
2022-12-29T14:33:29.611Z,9.15
2022-12-29T14:35:58.123Z,4.40
2022-12-29T14:38:33.803Z,8.27
2022-12-29T14:41:21.099Z,2.47
2022-12-29T14:44:03.029Z,2.47
2022-12-29T14:46:46.343Z,5.93
2022-12-29T14:49:19.999Z,7.40
2022-12-29T14:51:49.052Z,6.28
2022-12-29T14:54:56.011Z,3.28
2022-12-29T14:57:29.264Z,7.30
2022-12-29T15:00:07.185Z,7.80
2022-12-29T15:02:40.627Z,4.97
2022-12-29T15:05:26.531Z,6.20
2022-12-29T15:07:55.281Z,7.85
2022-12-29T15:10:26.467Z,8.98
2022-12-29T15:12:56.095Z,9.35
2022-12-29T15:15:27.731Z,7.80
2022-12-29T15:17:55.682Z,11.82
2022-12-29T15:20:26.396Z,9.20
2022-12-29T15:22:57.380Z,10.18
2022-12-29T15:25:27.369Z,11.07
2022-12-29T15:28:01.303Z,7.68
2022-12-29T15:30:28.945Z,6.25
2022-12-29T15:32:56.913Z,6.82
2022-12-29T15:35:29.104Z,8.00
2022-12-29T15:37:57.107Z,6.13
2022-12-29T15:40:28.602Z,8.45
2022-12-29T15:43:17.294Z,9.73
2022-12-29T15:45:45.099Z,9.85
2022-12-29T15:48:19.534Z,16.92
2022-12-29T15:50:47.967Z,9.73
2022-12-29T15:53:22.076Z,10.02
2022-12-29T15:55:51.075Z,9.77
2022-12-29T15:58:24.196Z,9.15
2022-12-29T16:00:53.963Z,11.73
2022-12-29T16:03:23.617Z,15.40
2022-12-29T16:05:54.826Z,13.20
2022-12-29T16:08:34.697Z,14.25
2022-12-29T16:11:07.763Z,15.02
2022-12-29T16:13:40.705Z,17.10
2022-12-29T16:16:15.513Z,16.27
2022-12-29T16:18:43.262Z,16.73
2022-12-29T16:21:20.088Z,13.88
2022-12-29T16:23:51.533Z,16.27
2022-12-29T16:26:23.578Z,15.95
2022-12-29T16:28:53.497Z,17.95
2022-12-29T16:31:24.596Z,16.30
2022-12-29T16:33:53.716Z,13.65
2022-12-29T16:36:30.924Z,11.23
2022-12-29T16:39:21.932Z,12.32
2022-12-29T16:41:51.183Z,10.35
2022-12-29T16:44:20.382Z,10.07
2022-12-29T16:47:01.580Z,13.70
2022-12-29T16:49:30.901Z,11.00
2022-12-29T16:51:58.755Z,16.40
2022-12-29T16:54:32.656Z,12.23
2022-12-29T16:57:01.767Z,14.23
2022-12-29T16:59:33.945Z,14.07
2022-12-29T17:02:07.103Z,9.32
2022-12-29T17:04:34.853Z,10.45
2022-12-29T17:07:02.419Z,17.45
2022-12-29T17:09:31.707Z,12.80
2022-12-29T17:12:10.839Z,9.10
2022-12-29T17:14:46.898Z,16.17
2022-12-29T17:17:24.024Z,12.60
2022-12-29T17:19:53.822Z,14.73
2022-12-29T17:22:26.077Z,24.95
2022-12-29T17:24:54.183Z,17.23
2022-12-29T17:27:33.883Z,17.77
2022-12-29T17:30:04.744Z,16.80
2022-12-29T17:32:34.146Z,17.80
2022-12-29T17:35:01.763Z,11.38
2022-12-29T17:37:35.734Z,15.77
2022-12-29T17:40:06.475Z,11.63
2022-12-29T17:42:39.272Z,20.00
2022-12-29T17:45:07.867Z,11.77
2022-12-29T17:47:35.410Z,16.17
2022-12-29T17:50:03.172Z,17.90
2022-12-29T17:52:30.883Z,17.42
2022-12-29T17:54:58.544Z,13.13
2022-12-29T17:57:26.138Z,10.90
2022-12-29T17:59:55.223Z,17.20
2022-12-29T18:02:33.235Z,15.52
2022-12-29T18:05:01.005Z,15.85
2022-12-29T18:07:35.718Z,12.20
2022-12-29T18:10:04.640Z,14.07
2022-12-29T18:12:38.651Z,14.65
2022-12-29T18:15:14.538Z,12.10
2022-12-29T18:17:42.093Z,13.63
2022-12-29T18:20:09.845Z,12.18
2022-12-29T18:22:37.452Z,11.32
2022-12-29T18:25:23.499Z,14.30
2022-12-29T18:27:51.196Z,18.08
2022-12-29T18:30:20.158Z,13.45
2022-12-29T18:32:47.765Z,11.65
2022-12-29T18:35:19.399Z,12.52
2022-12-29T18:37:46.960Z,13.35
2022-12-29T18:40:15.256Z,7.90
2022-12-29T18:42:42.842Z,11.15
2022-12-29T18:45:16.881Z,8.40
2022-12-29T18:47:46.996Z,12.93
2022-12-29T18:50:14.701Z,15.20
2022-12-29T18:52:42.351Z,16.75
2022-12-29T18:55:14.242Z,14.55
2022-12-29T18:57:41.848Z,15.40
2022-12-29T19:00:11.097Z,19.48
2022-12-29T19:02:38.908Z,11.65
2022-12-29T19:05:19.645Z,14.27
2022-12-29T19:07:47.310Z,14.82
2022-12-29T19:10:14.979Z,15.35
2022-12-29T19:12:42.666Z,15.82
2022-12-29T19:15:24.015Z,18.88
2022-12-29T19:18:08.604Z,26.88
2022-12-29T19:20:43.411Z,17.75
2022-12-29T19:23:13.269Z,14.57
2022-12-29T19:25:41.156Z,10.88
2022-12-29T19:28:16.195Z,10.98
2022-12-29T19:30:47.122Z,10.10
2022-12-29T19:33:17.413Z,11.43
2022-12-29T19:35:46.473Z,7.65
2022-12-29T19:38:15.757Z,7.25
2022-12-29T19:40:44.890Z,7.60
2022-12-29T19:43:13.162Z,8.13
2022-12-29T19:45:41.565Z,9.57
2022-12-29T19:48:15.295Z,12.77
2022-12-29T19:50:43.752Z,10.82
2022-12-29T19:53:13.454Z,13.95
2022-12-29T19:55:43.140Z,8.57
2022-12-29T19:58:10.761Z,10.23
2022-12-29T20:00:39.876Z,9.80
2022-12-29T20:03:07.672Z,12.73
2022-12-29T20:05:35.424Z,10.20
2022-12-29T20:08:03.089Z,10.85
2022-12-29T20:10:32.099Z,10.40
2022-12-29T20:12:59.737Z,14.57
2022-12-29T20:15:27.340Z,8.40
2022-12-29T20:20:43.758Z,6.30
2022-12-29T20:23:12.104Z,11.05
2022-12-29T20:25:45.287Z,7.00
2022-12-29T20:28:15.367Z,4.90
2022-12-29T20:30:43.075Z,3.80
2022-12-29T20:33:10.857Z,6.60
2022-12-29T20:35:38.783Z,6.03
2022-12-29T20:38:06.470Z,6.75
2022-12-29T20:40:34.194Z,5.43
2022-12-29T20:43:03.201Z,3.40
2022-12-29T20:45:31.198Z,4.00
2022-12-29T20:47:58.891Z,3.78
2022-12-29T20:50:26.479Z,7.03
2022-12-29T20:52:54.283Z,10.18
2022-12-29T20:55:21.957Z,8.63
2022-12-29T20:58:22.716Z,8.70
2022-12-29T21:00:38.440Z,2.55
2022-12-29T21:03:06.183Z,4.95
2022-12-29T21:05:37.529Z,5.85
2022-12-29T21:08:05.831Z,3.58
2022-12-29T21:10:34.084Z,5.90
2022-12-29T21:13:02.315Z,5.78
2022-12-29T21:15:30.552Z,6.10
2022-12-29T21:17:59.702Z,8.48
2022-12-29T21:20:31.925Z,6.40
2022-12-29T21:23:01.181Z,3.97
2022-12-29T21:25:36.788Z,5.95
2022-12-29T21:28:05.082Z,5.18
2022-12-29T21:30:33.072Z,4.60
2022-12-29T21:33:02.609Z,5.47
2022-12-29T21:35:30.612Z,6.25
2022-12-29T21:37:58.303Z,6.07
2022-12-29T21:40:25.963Z,5.68
2022-12-29T21:42:53.945Z,12.70
2022-12-29T21:45:26.585Z,7.97
2022-12-29T21:48:12.978Z,10.52
2022-12-29T21:50:57.620Z,6.00
2022-12-29T21:53:37.897Z,9.82
2022-12-29T21:56:10.842Z,9.20
2022-12-29T21:59:00.819Z,12.00
2022-12-29T22:01:47.915Z,5.93
2022-12-29T22:04:34.671Z,7.40
2022-12-29T22:07:22.223Z,8.05
2022-12-29T22:10:08.095Z,11.70
2022-12-29T22:12:53.415Z,9.88
2022-12-29T22:15:21.971Z,10.52
2022-12-29T22:17:52.326Z,8.18
2022-12-29T22:20:21.542Z,7.18
2022-12-29T22:22:50.710Z,9.77
2022-12-29T22:25:20.424Z,9.90
2022-12-29T22:27:48.303Z,5.53
2022-12-29T22:30:16.406Z,4.65
2022-12-29T22:32:44.375Z,7.50
2022-12-29T22:35:13.332Z,7.97
2022-12-29T22:37:43.367Z,8.00
2022-12-29T22:40:13.704Z,8.00
2022-12-29T22:42:41.272Z,11.80
2022-12-29T22:45:09.719Z,8.68
2022-12-29T22:47:37.318Z,8.93
2022-12-29T22:50:05.869Z,7.53
2022-12-29T22:52:33.469Z,11.95
2022-12-29T22:55:06.397Z,9.10
2022-12-29T22:57:36.383Z,10.27
2022-12-29T23:00:08.092Z,9.32
2022-12-29T23:02:36.357Z,11.60
2022-12-29T23:05:05.511Z,9.45
2022-12-29T23:07:34.036Z,11.95
2022-12-29T23:10:01.648Z,10.55
2022-12-29T23:12:30.212Z,6.22
2022-12-29T23:14:59.329Z,7.10
2022-12-29T23:17:26.937Z,7.40
2022-12-29T23:19:54.825Z,6.47
2022-12-29T23:22:23.106Z,6.22
2022-12-29T23:24:50.827Z,9.38
2022-12-29T23:27:18.425Z,9.18
2022-12-29T23:29:46.076Z,11.02
2022-12-29T23:32:15.072Z,8.55
2022-12-29T23:34:42.922Z,9.57
2022-12-29T23:37:10.531Z,7.97
2022-12-29T23:39:38.138Z,8.23
2022-12-29T23:42:05.877Z,7.05
2022-12-29T23:44:33.747Z,13.23
2022-12-29T23:47:02.538Z,9.63
2022-12-29T23:49:32.079Z,7.57
2022-12-29T23:51:59.634Z,7.93
2022-12-29T23:54:27.421Z,14.95
2022-12-29T23:56:55.131Z,9.98
2022-12-29T23:59:22.665Z,11.88
